createdAt,value
2019-05-30T00:00:22.795Z,10.20
2019-05-30T00:02:51.845Z,10.30
2019-05-30T00:05:20.970Z,10.30
2019-05-30T00:07:50.016Z,10.30
2019-05-30T00:10:19.078Z,10.20
2019-05-30T00:12:48.114Z,10.30
2019-05-30T00:15:17.212Z,10.30
2019-05-30T00:17:46.405Z,10.20
2019-05-30T00:20:15.585Z,10.20
2019-05-30T00:22:44.643Z,10.20
2019-05-30T00:25:13.843Z,10.10
2019-05-30T00:27:42.915Z,10.10
2019-05-30T00:30:23.820Z,10.20
2019-05-30T00:32:42.941Z,10.10
2019-05-30T00:35:12.199Z,10.10
2019-05-30T00:37:41.227Z,10.10
2019-05-30T00:40:10.403Z,10.20
2019-05-30T00:42:39.458Z,10.20
2019-05-30T00:45:20.024Z,10.40
2019-05-30T00:47:39.543Z,10.40
2019-05-30T00:50:09.238Z,10.40
2019-05-30T00:52:38.366Z,10.40
2019-05-30T00:55:07.466Z,10.30
2019-05-30T00:57:36.513Z,10.40
2019-05-30T01:00:08.299Z,10.30
2019-05-30T01:02:37.332Z,10.30
2019-05-30T01:05:08.015Z,10.40
2019-05-30T01:07:37.335Z,10.40
2019-05-30T01:10:08.153Z,10.50
2019-05-30T01:12:37.463Z,10.50
2019-05-30T01:15:08.235Z,10.60
2019-05-30T01:17:37.273Z,10.60
2019-05-30T01:20:07.958Z,10.60
2019-05-30T01:22:37.083Z,10.60
2019-05-30T01:25:07.909Z,10.60
2019-05-30T01:27:37.640Z,10.70
2019-05-30T01:30:09.864Z,10.70
2019-05-30T01:32:38.974Z,10.70
2019-05-30T01:35:09.443Z,10.70
2019-05-30T01:37:38.476Z,10.80
2019-05-30T01:40:08.992Z,10.90
2019-05-30T01:42:38.346Z,11.00
2019-05-30T01:45:08.758Z,11.00
2019-05-30T01:47:37.787Z,11.10
2019-05-30T01:50:08.724Z,11.20
2019-05-30T01:52:38.021Z,11.20
2019-05-30T01:55:11.933Z,11.30
2019-05-30T01:57:40.688Z,11.30
2019-05-30T02:00:20.766Z,11.30
2019-05-30T02:02:45.790Z,11.40
2019-05-30T02:05:15.752Z,11.50
2019-05-30T02:07:44.921Z,11.50
2019-05-30T02:10:14.290Z,11.40
2019-05-30T02:12:43.328Z,11.50
2019-05-30T02:15:12.774Z,11.50
2019-05-30T02:17:41.808Z,11.60
2019-05-30T02:20:11.081Z,11.60
2019-05-30T02:22:40.112Z,11.60
2019-05-30T02:25:10.356Z,11.60
2019-05-30T02:27:39.583Z,11.70
2019-05-30T02:30:12.601Z,11.70
2019-05-30T02:32:40.329Z,11.70
2019-05-30T02:35:10.913Z,11.80
2019-05-30T02:37:40.328Z,11.90
2019-05-30T02:40:14.570Z,11.90
2019-05-30T02:42:40.627Z,11.90
2019-05-30T02:45:12.279Z,11.90
2019-05-30T02:47:40.862Z,12.00
2019-05-30T02:50:13.711Z,12.00
2019-05-30T02:52:42.280Z,12.00
2019-05-30T02:55:30.655Z,11.90
2019-05-30T02:58:01.216Z,12.00
2019-05-30T03:00:35.593Z,12.10
2019-05-30T03:03:06.511Z,12.10
2019-05-30T03:05:35.503Z,12.10
2019-05-30T03:08:06.527Z,12.10
2019-05-30T03:10:35.680Z,12.10
2019-05-30T03:13:06.478Z,12.10
2019-05-30T03:15:35.706Z,12.10
2019-05-30T03:18:07.318Z,12.20
2019-05-30T03:20:36.084Z,12.20
2019-05-30T03:23:07.375Z,12.20
2019-05-30T03:25:35.973Z,12.20
2019-05-30T03:28:07.119Z,12.20
2019-05-30T03:30:36.342Z,12.20
2019-05-30T03:33:18.961Z,12.20
2019-05-30T03:35:42.733Z,12.20
2019-05-30T03:38:08.705Z,12.20
2019-05-30T03:40:37.838Z,12.20
2019-05-30T03:43:09.234Z,12.20
2019-05-30T03:45:39.440Z,12.30
2019-05-30T03:48:13.627Z,12.30
2019-05-30T03:50:45.167Z,12.30
2019-05-30T03:53:16.164Z,12.30
2019-05-30T03:55:48.521Z,12.30
2019-05-30T03:58:37.072Z,12.30
2019-05-30T04:01:12.710Z,12.30
2019-05-30T04:04:06.541Z,12.30
2019-05-30T04:06:41.941Z,12.40
2019-05-30T04:09:21.249Z,12.40
2019-05-30T04:11:47.041Z,12.40
2019-05-30T04:14:19.412Z,12.50
2019-05-30T04:16:48.555Z,12.50
2019-05-30T04:19:19.754Z,12.40
2019-05-30T04:21:48.357Z,12.50
2019-05-30T04:24:17.456Z,12.50
2019-05-30T04:26:46.515Z,12.60
2019-05-30T04:29:16.714Z,12.60
2019-05-30T04:31:46.371Z,12.60
2019-05-30T04:34:17.241Z,12.80
2019-05-30T04:36:46.217Z,12.70
2019-05-30T04:39:15.685Z,12.70
2019-05-30T04:41:46.061Z,12.80
2019-05-30T04:44:16.318Z,12.80
2019-05-30T04:46:45.869Z,12.90
2019-05-30T04:49:16.667Z,12.70
2019-05-30T04:51:45.654Z,12.90
2019-05-30T04:54:16.589Z,12.80
2019-05-30T04:56:45.446Z,12.90
2019-05-30T04:59:15.316Z,13.10
2019-05-30T05:01:44.883Z,13.00
2019-05-30T05:04:15.346Z,13.00
2019-05-30T05:06:44.624Z,13.10
2019-05-30T05:09:14.082Z,13.00
2019-05-30T05:11:43.259Z,13.10
2019-05-30T05:14:12.460Z,13.00
2019-05-30T05:16:41.479Z,13.10
2019-05-30T05:19:10.518Z,13.10
2019-05-30T05:21:39.551Z,13.00
2019-05-30T05:24:08.596Z,13.00
2019-05-30T05:26:37.630Z,13.10
2019-05-30T05:29:06.679Z,13.10
2019-05-30T05:31:35.772Z,13.00
2019-05-30T05:34:04.816Z,12.90
2019-05-30T05:36:33.836Z,12.90
2019-05-30T05:39:03.452Z,12.80
2019-05-30T05:41:32.482Z,12.80
2019-05-30T05:44:01.527Z,12.80
2019-05-30T05:46:30.573Z,12.80
2019-05-30T05:48:59.675Z,13.00
2019-05-30T05:51:29.064Z,12.90
2019-05-30T05:53:58.227Z,12.80
2019-05-30T05:56:27.251Z,12.90
2019-05-30T05:58:56.296Z,12.70
2019-05-30T06:01:25.865Z,12.70
2019-05-30T06:03:54.914Z,12.70
2019-05-30T06:06:23.968Z,12.70
2019-05-30T06:08:53.016Z,12.70
2019-05-30T06:11:22.697Z,12.60
2019-05-30T06:13:51.874Z,12.70
2019-05-30T06:16:22.001Z,12.60
2019-05-30T06:18:51.204Z,12.80
2019-05-30T06:21:21.260Z,12.60
2019-05-30T06:23:50.448Z,12.50
2019-05-30T06:26:19.936Z,12.50
2019-05-30T06:28:49.096Z,12.50
2019-05-30T06:31:18.395Z,12.70
2019-05-30T06:33:47.539Z,12.60
2019-05-30T06:36:16.588Z,12.50
2019-05-30T06:38:45.615Z,12.60
2019-05-30T06:41:14.680Z,12.50
2019-05-30T06:43:43.713Z,12.60
2019-05-30T06:46:12.765Z,12.70
2019-05-30T06:48:41.793Z,12.50
2019-05-30T06:51:14.268Z,12.60
2019-05-30T06:53:41.628Z,12.60
2019-05-30T06:56:10.683Z,12.70
2019-05-30T06:58:48.473Z,12.60
2019-05-30T07:01:10.474Z,12.40
2019-05-30T07:03:39.509Z,12.50
2019-05-30T07:06:09.655Z,12.30
2019-05-30T07:08:39.057Z,12.40
2019-05-30T07:11:08.181Z,12.40
2019-05-30T07:13:37.226Z,12.40
2019-05-30T07:16:06.287Z,12.40
2019-05-30T07:18:36.715Z,12.30
2019-05-30T07:21:06.076Z,12.40
2019-05-30T07:23:38.844Z,12.30
2019-05-30T07:26:05.937Z,12.40
2019-05-30T07:28:35.013Z,12.40
2019-05-30T07:31:04.156Z,12.60
2019-05-30T07:33:34.463Z,12.60
2019-05-30T07:36:03.627Z,12.40
2019-05-30T07:38:32.723Z,12.60
2019-05-30T07:41:01.827Z,12.50
2019-05-30T07:43:32.296Z,12.50
2019-05-30T07:46:01.751Z,12.50
2019-05-30T07:48:30.812Z,12.70
2019-05-30T07:50:59.867Z,12.50
2019-05-30T07:53:28.910Z,12.60
2019-05-30T07:55:57.956Z,12.60
2019-05-30T07:58:27.076Z,12.60
2019-05-30T08:00:56.140Z,12.60
2019-05-30T08:03:26.385Z,12.50
2019-05-30T08:05:55.621Z,12.60
2019-05-30T08:08:24.670Z,12.70
2019-05-30T08:11:08.352Z,12.80
2019-05-30T08:13:24.525Z,12.50
2019-05-30T08:15:53.591Z,12.60
2019-05-30T08:18:22.659Z,12.50
2019-05-30T08:20:51.710Z,12.50
2019-05-30T08:23:20.845Z,12.60
2019-05-30T08:25:49.902Z,12.50
2019-05-30T08:28:18.964Z,12.50
2019-05-30T08:30:48.683Z,12.40
2019-05-30T08:33:20.879Z,12.40
2019-05-30T08:35:50.228Z,12.50
2019-05-30T08:38:19.385Z,12.40
2019-05-30T08:40:48.423Z,12.50
2019-05-30T08:43:17.502Z,12.40
2019-05-30T08:45:46.546Z,12.50
2019-05-30T08:48:15.658Z,12.50
2019-05-30T08:50:44.933Z,12.70
2019-05-30T08:53:14.285Z,12.70
2019-05-30T08:55:43.606Z,12.60
2019-05-30T08:58:12.677Z,12.70
2019-05-30T09:00:41.791Z,12.70
2019-05-30T09:03:10.843Z,12.60
2019-05-30T09:05:56.439Z,12.70
2019-05-30T09:08:10.988Z,12.80
2019-05-30T09:10:40.843Z,12.80
2019-05-30T09:13:10.088Z,12.70
2019-05-30T09:15:39.199Z,12.80
2019-05-30T09:18:08.276Z,12.70
2019-05-30T09:20:38.448Z,12.80
2019-05-30T09:23:08.106Z,13.00
2019-05-30T09:25:37.194Z,12.90
2019-05-30T09:28:07.662Z,12.90
2019-05-30T09:30:38.300Z,13.00
2019-05-30T09:33:07.508Z,13.10
2019-05-30T09:35:36.556Z,13.10
2019-05-30T09:38:05.625Z,13.30
2019-05-30T09:40:35.138Z,13.30
2019-05-30T09:43:04.278Z,13.30
2019-05-30T09:45:33.319Z,13.20
2019-05-30T09:48:02.375Z,13.30
2019-05-30T09:50:31.437Z,13.20
2019-05-30T09:53:00.547Z,13.30
2019-05-30T09:55:29.770Z,13.30
2019-05-30T09:57:58.871Z,13.30
2019-05-30T10:00:28.175Z,13.40
2019-05-30T10:02:57.247Z,13.40
2019-05-30T10:05:26.487Z,13.40
2019-05-30T10:07:55.575Z,13.50
2019-05-30T10:10:24.792Z,13.40
2019-05-30T10:12:53.839Z,13.40
2019-05-30T10:15:23.448Z,13.50
2019-05-30T10:17:54.419Z,13.50
2019-05-30T10:20:23.344Z,13.60
2019-05-30T10:22:53.732Z,13.60
2019-05-30T10:25:23.431Z,13.70
2019-05-30T10:27:54.645Z,13.70
2019-05-30T10:30:24.629Z,13.90
2019-05-30T10:32:53.986Z,13.90
2019-05-30T10:35:23.352Z,13.90
2019-05-30T10:37:52.825Z,13.90
2019-05-30T10:40:22.274Z,14.00
2019-05-30T10:42:53.088Z,14.00
2019-05-30T10:45:24.083Z,14.10
2019-05-30T10:47:53.667Z,14.00
2019-05-30T10:50:23.442Z,14.00
2019-05-30T10:52:53.604Z,14.10
2019-05-30T10:55:24.067Z,14.10
2019-05-30T10:57:57.547Z,14.10
2019-05-30T11:00:32.797Z,14.10
2019-05-30T11:05:46.219Z,14.10
2019-05-30T11:08:18.775Z,14.20
2019-05-30T11:10:48.493Z,14.30
2019-05-30T11:13:18.799Z,14.30
2019-05-30T11:15:48.724Z,14.30
2019-05-30T11:18:18.632Z,14.20
2019-05-30T11:20:47.938Z,14.20
2019-05-30T11:23:17.024Z,14.20
2019-05-30T11:25:46.078Z,14.10
2019-05-30T11:28:15.137Z,14.20
2019-05-30T11:30:44.252Z,14.20
2019-05-30T11:33:13.394Z,14.20
2019-05-30T11:35:42.440Z,14.20
2019-05-30T11:38:11.499Z,14.20
2019-05-30T11:40:40.925Z,14.30
2019-05-30T11:43:10.052Z,14.30
2019-05-30T11:45:39.943Z,14.30
2019-05-30T11:48:09.090Z,14.20
2019-05-30T11:50:38.136Z,14.30
2019-05-30T11:53:07.252Z,14.30
2019-05-30T11:55:36.376Z,14.30
2019-05-30T11:58:05.440Z,14.30
2019-05-30T12:00:34.561Z,14.20
2019-05-30T12:03:03.625Z,14.40
2019-05-30T12:05:37.141Z,14.30
2019-05-30T12:08:05.913Z,14.30
2019-05-30T12:10:35.192Z,14.40
2019-05-30T12:13:04.258Z,14.40
2019-05-30T12:15:33.328Z,14.40
2019-05-30T12:18:02.596Z,14.40
2019-05-30T12:20:31.620Z,14.40
2019-05-30T12:23:00.684Z,14.50
2019-05-30T12:25:29.803Z,14.50
2019-05-30T12:28:00.079Z,14.50
2019-05-30T12:30:29.391Z,14.60
2019-05-30T12:32:58.487Z,14.60
2019-05-30T12:38:21.739Z,14.70
2019-05-30T12:40:50.787Z,14.60
2019-05-30T12:43:20.145Z,14.80
2019-05-30T12:45:49.198Z,14.80
2019-05-30T12:48:18.250Z,14.80
2019-05-30T12:50:47.313Z,14.80
2019-05-30T12:53:16.375Z,14.90
2019-05-30T12:55:45.428Z,14.90
2019-05-30T12:58:14.615Z,14.90
2019-05-30T13:00:44.300Z,14.90
2019-05-30T13:03:13.359Z,15.00
2019-05-30T13:05:42.450Z,15.00
2019-05-30T13:08:21.346Z,15.00
2019-05-30T13:10:42.920Z,15.00
2019-05-30T13:13:11.987Z,15.00
2019-05-30T13:15:41.060Z,15.00
2019-05-30T13:18:10.114Z,15.10
2019-05-30T13:20:39.168Z,15.00
2019-05-30T13:23:08.232Z,14.90
2019-05-30T13:25:37.293Z,15.00
2019-05-30T13:28:08.357Z,15.00
2019-05-30T13:30:37.136Z,15.10
2019-05-30T13:33:06.912Z,15.10
2019-05-30T13:35:36.236Z,15.20
2019-05-30T13:38:05.370Z,15.20
2019-05-30T13:40:34.524Z,15.20
2019-05-30T13:43:03.988Z,15.30
2019-05-30T13:45:33.228Z,15.40
2019-05-30T13:48:02.554Z,15.20
2019-05-30T13:50:31.824Z,15.20
2019-05-30T13:53:00.997Z,15.30
2019-05-30T13:55:30.153Z,15.40
2019-05-30T13:57:59.514Z,15.40
2019-05-30T14:00:28.991Z,15.30
2019-05-30T14:02:58.050Z,15.40
2019-05-30T14:05:27.550Z,15.40
2019-05-30T14:07:56.594Z,15.30
2019-05-30T14:10:25.651Z,15.20
2019-05-30T14:12:54.703Z,15.20
2019-05-30T14:15:23.899Z,15.10
2019-05-30T14:17:52.941Z,15.20
2019-05-30T14:20:22.743Z,15.20
2019-05-30T14:22:51.820Z,15.20
2019-05-30T14:25:21.118Z,15.30
2019-05-30T14:27:50.243Z,15.30
2019-05-30T14:30:19.640Z,15.30
2019-05-30T14:32:48.686Z,15.30
2019-05-30T14:35:17.819Z,15.30
2019-05-30T14:37:46.863Z,15.30
2019-05-30T14:40:16.435Z,15.30
2019-05-30T14:42:45.515Z,15.30
2019-05-30T14:45:16.845Z,15.30
2019-05-30T14:47:45.985Z,15.30
2019-05-30T14:50:17.239Z,15.30
2019-05-30T14:52:47.048Z,15.20
2019-05-30T14:55:17.372Z,15.20
2019-05-30T14:57:46.655Z,15.20
2019-05-30T15:00:17.860Z,15.20
2019-05-30T15:02:47.073Z,15.10
2019-05-30T15:05:17.936Z,15.20
2019-05-30T15:07:46.999Z,15.20
2019-05-30T15:10:17.066Z,15.30
2019-05-30T15:12:46.401Z,15.30
2019-05-30T15:15:18.546Z,15.30
2019-05-30T15:17:47.505Z,15.30
2019-05-30T15:20:17.790Z,15.30
2019-05-30T15:22:47.298Z,15.20
2019-05-30T15:25:17.973Z,15.20
2019-05-30T15:27:47.616Z,15.20
2019-05-30T15:30:17.225Z,15.30
2019-05-30T15:32:46.430Z,15.30
2019-05-30T15:35:19.098Z,15.30
2019-05-30T15:37:47.019Z,15.30
2019-05-30T15:40:17.228Z,15.20
2019-05-30T15:42:46.434Z,15.30
2019-05-30T15:45:16.223Z,15.20
2019-05-30T15:47:45.374Z,15.30
2019-05-30T15:50:15.370Z,15.30
2019-05-30T15:52:45.774Z,15.30
2019-05-30T15:55:15.719Z,15.30
2019-05-30T15:57:44.786Z,15.30
2019-05-30T16:00:16.105Z,15.30
2019-05-30T16:02:45.423Z,15.40
2019-05-30T16:05:15.007Z,15.50
2019-05-30T16:07:44.374Z,15.40
2019-05-30T16:10:14.858Z,15.40
2019-05-30T16:12:43.984Z,15.40
2019-05-30T16:15:13.518Z,15.40
2019-05-30T16:17:42.588Z,15.40
2019-05-30T16:20:12.086Z,15.60
2019-05-30T16:22:41.712Z,15.70
2019-05-30T16:25:11.069Z,15.80
2019-05-30T16:27:40.131Z,15.80
2019-05-30T16:30:11.645Z,15.80
2019-05-30T16:32:40.893Z,15.70
2019-05-30T16:35:10.098Z,15.60
2019-05-30T16:37:39.141Z,15.50
2019-05-30T16:40:08.745Z,15.60
2019-05-30T16:42:37.878Z,15.50
2019-05-30T16:45:08.424Z,15.40
2019-05-30T16:47:37.693Z,15.30
2019-05-30T16:50:08.577Z,15.30
2019-05-30T16:52:37.695Z,15.30
2019-05-30T16:55:08.302Z,15.20
2019-05-30T16:57:37.370Z,15.20
2019-05-30T17:00:12.351Z,15.20
2019-05-30T17:02:41.408Z,15.30
2019-05-30T17:05:11.663Z,15.20
2019-05-30T17:07:40.812Z,15.20
2019-05-30T17:10:22.336Z,15.30
2019-05-30T17:12:41.262Z,15.20
2019-05-30T17:15:11.174Z,15.20
2019-05-30T17:17:40.238Z,15.20
2019-05-30T17:20:10.444Z,15.20
2019-05-30T17:22:39.493Z,15.30
2019-05-30T17:25:09.174Z,15.20
2019-05-30T17:27:38.231Z,15.00
2019-05-30T17:30:09.651Z,15.00
2019-05-30T17:32:38.719Z,15.00
2019-05-30T17:35:08.830Z,15.00
2019-05-30T17:37:37.971Z,15.00
2019-05-30T17:40:07.791Z,14.90
2019-05-30T17:42:37.017Z,14.90
2019-05-30T17:45:10.306Z,14.90
2019-05-30T17:47:39.271Z,14.80
2019-05-30T17:50:09.486Z,14.80
2019-05-30T17:52:38.660Z,14.70
2019-05-30T17:55:09.967Z,14.70
2019-05-30T17:57:39.028Z,14.70
2019-05-30T18:00:13.179Z,14.70
2019-05-30T18:02:42.403Z,14.70
2019-05-30T18:05:13.708Z,14.70
2019-05-30T18:07:42.781Z,14.60
2019-05-30T18:10:12.379Z,14.60
2019-05-30T18:12:41.444Z,14.70
2019-05-30T18:15:12.908Z,14.70
2019-05-30T18:17:41.972Z,14.80
2019-05-30T18:20:12.100Z,14.80
2019-05-30T18:22:41.247Z,14.70
2019-05-30T18:25:11.529Z,14.80
2019-05-30T18:27:40.602Z,14.90
2019-05-30T18:30:11.401Z,14.90
2019-05-30T18:32:40.468Z,14.80
2019-05-30T18:35:09.969Z,14.90
2019-05-30T18:37:39.423Z,14.90
2019-05-30T18:40:09.587Z,14.90
2019-05-30T18:42:38.670Z,14.80
2019-05-30T18:45:11.790Z,14.90
2019-05-30T18:47:40.872Z,14.90
2019-05-30T18:50:10.371Z,14.90
2019-05-30T18:52:39.439Z,14.90
2019-05-30T18:55:09.668Z,14.80
2019-05-30T18:57:38.738Z,14.90
2019-05-30T19:00:09.701Z,15.00
2019-05-30T19:02:39.690Z,14.90
2019-05-30T19:05:09.008Z,14.90
2019-05-30T19:07:38.142Z,14.90
2019-05-30T19:10:07.444Z,14.90
2019-05-30T19:12:36.714Z,15.00
2019-05-30T19:15:07.460Z,15.00
2019-05-30T19:17:36.539Z,14.90
2019-05-30T19:20:07.235Z,14.90
2019-05-30T19:22:36.571Z,14.90
2019-05-30T19:25:07.212Z,14.90
2019-05-30T19:27:37.093Z,14.90
2019-05-30T19:30:08.927Z,14.90
2019-05-30T19:32:37.997Z,14.90
2019-05-30T19:35:08.084Z,14.90
2019-05-30T19:37:37.577Z,14.90
2019-05-30T19:40:07.619Z,15.00
2019-05-30T19:42:37.805Z,14.90
2019-05-30T19:45:09.487Z,14.90
2019-05-30T19:47:38.888Z,15.10
2019-05-30T19:50:10.687Z,15.10
2019-05-30T19:52:39.768Z,15.00
2019-05-30T19:55:09.096Z,15.00
2019-05-30T19:57:38.237Z,15.00
2019-05-30T20:00:12.620Z,15.00
2019-05-30T20:02:41.694Z,15.00
2019-05-30T20:05:10.894Z,15.10
2019-05-30T20:07:40.884Z,15.00
2019-05-30T20:10:10.673Z,15.00
2019-05-30T20:12:41.000Z,15.00
2019-05-30T20:15:12.248Z,15.00
2019-05-30T20:17:41.925Z,15.00
2019-05-30T20:20:11.798Z,15.00
2019-05-30T20:22:42.233Z,15.00
2019-05-30T20:25:12.600Z,15.00
2019-05-30T20:27:42.974Z,15.00
2019-05-30T20:30:14.140Z,15.10
2019-05-30T20:32:43.751Z,15.00
2019-05-30T20:35:12.977Z,15.00
2019-05-30T20:37:42.961Z,15.00
2019-05-30T20:40:13.624Z,15.10
2019-05-30T20:42:43.058Z,15.00
2019-05-30T20:45:13.065Z,15.00
2019-05-30T20:47:44.322Z,15.00
2019-05-30T20:50:15.169Z,14.90
2019-05-30T20:52:45.792Z,15.10
2019-05-30T20:55:15.328Z,15.00
2019-05-30T20:57:44.463Z,15.00
2019-05-30T21:00:14.656Z,15.00
2019-05-30T21:02:44.737Z,15.10
2019-05-30T21:05:14.204Z,15.10
2019-05-30T21:07:46.242Z,15.00
2019-05-30T21:10:15.592Z,15.10
2019-05-30T21:12:49.105Z,15.10
2019-05-30T21:15:18.310Z,15.10
2019-05-30T21:17:47.462Z,15.10
2019-05-30T21:20:17.081Z,15.10
2019-05-30T21:22:46.701Z,15.10
2019-05-30T21:25:16.063Z,15.10
2019-05-30T21:27:45.305Z,15.00
2019-05-30T21:30:15.285Z,15.10
2019-05-30T21:32:46.275Z,15.10
2019-05-30T21:35:15.485Z,15.10
2019-05-30T21:37:45.729Z,15.10
2019-05-30T21:40:15.659Z,15.00
2019-05-30T21:42:58.115Z,15.10
2019-05-30T21:45:15.680Z,15.10
2019-05-30T21:47:44.821Z,14.90
2019-05-30T21:50:14.131Z,15.10
2019-05-30T21:52:43.599Z,15.00
2019-05-30T21:55:12.963Z,15.10
2019-05-30T21:57:42.025Z,15.00
2019-05-30T22:00:18.235Z,15.10
2019-05-30T22:02:54.364Z,15.10
2019-05-30T22:05:24.068Z,15.10
2019-05-30T22:07:53.129Z,15.10
2019-05-30T22:10:22.197Z,15.00
2019-05-30T22:12:51.819Z,15.10
2019-05-30T22:15:20.996Z,15.10
2019-05-30T22:17:50.057Z,15.10
2019-05-30T22:20:19.252Z,15.20
2019-05-30T22:22:48.314Z,15.20
2019-05-30T22:25:17.386Z,15.10
2019-05-30T22:27:46.438Z,15.20
2019-05-30T22:30:15.589Z,15.00
2019-05-30T22:32:44.698Z,15.10
2019-05-30T22:35:13.818Z,15.10
2019-05-30T22:37:42.879Z,15.10
2019-05-30T22:40:12.468Z,15.00
2019-05-30T22:42:41.550Z,15.10
2019-05-30T22:45:10.664Z,15.10
2019-05-30T22:47:39.727Z,15.10
2019-05-30T22:50:08.916Z,15.10
2019-05-30T22:52:37.985Z,15.20
2019-05-30T22:55:07.096Z,15.20
2019-05-30T22:57:36.297Z,15.10
2019-05-30T23:00:08.632Z,15.10
2019-05-30T23:02:37.698Z,15.10
2019-05-30T23:05:07.743Z,15.00
2019-05-30T23:07:36.814Z,15.00
2019-05-30T23:10:06.815Z,15.00
2019-05-30T23:12:36.019Z,15.00
2019-05-30T23:15:06.731Z,15.10
2019-05-30T23:17:35.823Z,15.10
2019-05-30T23:20:22.711Z,14.90
2019-05-30T23:22:47.361Z,14.90
2019-05-30T23:25:17.832Z,14.90
2019-05-30T23:27:55.657Z,14.90
2019-05-30T23:30:26.169Z,14.90
2019-05-30T23:32:56.307Z,14.90
2019-05-30T23:35:25.660Z,14.90
2019-05-30T23:37:54.776Z,14.90
2019-05-30T23:40:23.936Z,14.90
2019-05-30T23:42:53.047Z,14.90
2019-05-30T23:45:22.120Z,14.90
2019-05-30T23:47:51.362Z,15.00
2019-05-30T23:50:20.517Z,15.00
2019-05-30T23:52:50.055Z,15.00
2019-05-30T23:55:19.321Z,14.90
2019-05-30T23:57:48.454Z,14.90
